Pagina principale
METAR-TAF:

METAR-TAF

Aeroporti :

Aigen im Ennstal, Austria

latitudine: 47-32N, longitudine: 014-08E, altezza: 638 m

METAR: mancante

Ora: 05:33 (04:33 UTC)

Previsione

Il bollettino è stato emesso 20 ore e 18 minuti fa, alle 08:15 UTC
Previsione valida dal 01 alle 09 UTC al 01 alle 18 UTC
Vento 3 kt da direzioni variabili
Visibilità 10 km o più
Poco nuvoloso ad un'altezza di 9000 ft
Nuvoloso ad un'altezza di 16000 ft
Evoluzione graduale
dal 01 alle 12 UTC al 01 alle 14 UTC
Nubi sparse ad un'altezza di 3000 ft
Nuvoloso ad un'altezza di 5000 ft
pioggia debole
Temporaneamente
dal 01 alle 13 UTC al 01 alle 18 UTC
Visibilità: 4000 m
Nubi sparse ad un'altezza di 1500 ft
Nuvoloso ad un'altezza di 2000 ft
pioggia,

TAF: LOXA 010815Z 0109/0118 VRB03KT 9999 FEW090 BKN160 BECMG 0112/0114 -RA SCT030 BKN050 TEMPO 0113/0118 4000 RA SCT015 BKN020

Osservazioni e previsioni meteorologiche di più di 4000 aeroporti (messaggi METAR e TAF).

Le stazioni disponibili sono rappresentate dai dischi gialli e rossi sulla carta.

Puntare il mouse per vedere il nome della stazione.

Clicca sopra per visualizzare le osservazioni e previsioni meteorologiche.

Per cambiare la mappa : fare clic sui pulsanti verdi con una croce nera per ingrandire, il pulsante verde con un trattino per diminuire, o sulla freccia verde per le mappe adiacenti.


METAR-TAF: